Time;durP1;ratioP1;P1;durP2;ratioP2;P2;SDS_P1;SDS_P2;PMS_P1;PMS_P2;Temp;Humidity;BMP_temperature;BMP_pressure;BME280_temperature;BME280_humidity;BME280_pressure;Samples;Min_cycle;Max_cycle;Signal;HPM_P1;HPM_P2
2022/04/26 03:37:12;;;;;;;5.78;4.60;;;10.70;99.90;;;;;;4187031;28;20033;-62
2022/04/26 03:39:13;;;;;;;9.85;5.82;;;10.60;99.90;;;;;;4187337;28;20163;-62
2022/04/26 03:41:17;;;;;;;6.28;5.28;;;10.60;99.90;;;;;;4191833;28;20055;-62
2022/04/26 03:43:17;;;;;;;10.63;5.60;;;10.60;99.90;;;;;;4192986;28;20373;-61
2022/04/26 03:45:18;;;;;;;5.55;4.88;;;10.50;99.90;;;;;;4184467;28;20082;-62
2022/04/26 03:47:18;;;;;;;8.27;4.75;;;10.50;99.90;;;;;;4183816;28;20043;-66
2022/04/26 03:49:20;;;;;;;6.95;4.93;;;10.50;99.90;;;;;;4184795;28;20044;-63
2022/04/26 03:51:21;;;;;;;6.85;5.13;;;10.50;99.90;;;;;;4187166;28;20029;-62
2022/04/26 03:53:21;;;;;;;9.23;5.03;;;10.50;99.90;;;;;;4187922;28;20476;-62
2022/04/26 03:55:23;;;;;;;6.93;5.18;;;10.50;99.90;;;;;;4187214;28;20029;-62
2022/04/26 03:57:24;;;;;;;8.23;5.28;;;10.50;99.90;;;;;;4193385;28;20124;-62
2022/04/26 03:59:25;;;;;;;6.97;5.13;;;10.50;99.90;;;;;;4186428;28;20028;-63
2022/04/26 04:01:25;;;;;;;5.70;4.90;;;10.50;99.90;;;;;;4187925;28;20045;-62
2022/04/26 04:03:26;;;;;;;8.70;5.10;;;10.50;99.90;;;;;;4186667;28;20056;-62
2022/04/26 04:05:27;;;;;;;7.10;5.28;;;10.50;99.90;;;;;;4186833;28;20031;-62
2022/04/26 04:07:27;;;;;;;8.75;5.75;;;10.50;99.90;;;;;;4186167;28;20025;-62
2022/04/26 04:09:28;;;;;;;7.45;5.50;;;10.50;99.90;;;;;;4188607;28;20075;-62
2022/04/26 04:11:29;;;;;;;8.15;5.65;;;10.50;99.90;;;;;;4193201;28;20023;-62
2022/04/26 04:13:29;;;;;;;8.35;5.32;;;10.50;99.90;;;;;;4185669;28;20041;-62
2022/04/26 04:15:30;;;;;;;6.05;4.80;;;10.50;99.90;;;;;;4183405;28;21009;-62
2022/04/26 04:17:30;;;;;;;8.90;5.70;;;10.50;99.90;;;;;;4191639;28;20095;-62
2022/04/26 04:19:32;;;;;;;8.90;5.00;;;10.50;99.90;;;;;;4191418;28;20539;-62
2022/04/26 04:21:33;;;;;;;8.40;6.27;;;10.40;99.90;;;;;;4185398;28;20106;-62
2022/04/26 04:23:38;;;;;;;7.22;5.95;;;10.40;99.90;;;;;;4186064;28;20251;-62
2022/04/26 04:25:38;;;;;;;6.57;5.55;;;10.30;99.90;;;;;;4192273;28;20032;-62
2022/04/26 04:27:39;;;;;;;9.57;6.35;;;10.30;99.90;;;;;;4191202;28;20464;-62
2022/04/26 04:29:39;;;;;;;9.75;5.90;;;10.30;99.90;;;;;;4188771;28;20051;-62
2022/04/26 04:31:41;;;;;;;10.23;5.75;;;10.20;99.90;;;;;;4190079;28;20033;-62
2022/04/26 04:33:43;;;;;;;8.52;5.65;;;10.20;99.90;;;;;;4192494;28;20063;-62
2022/04/26 04:35:43;;;;;;;10.93;6.28;;;10.20;99.90;;;;;;4185153;28;20499;-62
2022/04/26 04:37:44;;;;;;;10.73;5.88;;;10.20;99.90;;;;;;4183581;28;20037;-62
2022/04/26 04:39:45;;;;;;;11.73;6.75;;;10.10;99.90;;;;;;4185753;28;20040;-62
2022/04/26 04:41:47;;;;;;;9.63;6.57;;;10.10;99.90;;;;;;4190416;28;20032;-62
2022/04/26 04:43:47;;;;;;;9.98;5.75;;;10.10;99.90;;;;;;4188062;28;20104;-62
2022/04/26 04:45:48;;;;;;;10.38;5.95;;;10.10;99.90;;;;;;4184559;28;20029;-62
2022/04/26 04:47:49;;;;;;;10.60;5.57;;;10.10;99.90;;;;;;4182761;28;20093;-62
2022/04/26 04:49:49;;;;;;;9.80;5.75;;;10.10;99.90;;;;;;4186207;28;20036;-62
2022/04/26 04:51:50;;;;;;;7.03;5.43;;;10.10;99.90;;;;;;4186623;28;20048;-62
2022/04/26 04:53:50;;;;;;;9.50;6.07;;;10.10;99.90;;;;;;4186811;28;20128;-63
2022/04/26 04:55:51;;;;;;;8.63;6.07;;;10.10;99.90;;;;;;4189498;28;20090;-63
2022/04/26 04:57:51;;;;;;;8.43;5.68;;;10.10;99.90;;;;;;4187480;28;20488;-62
2022/04/26 04:59:52;;;;;;;8.57;5.68;;;10.10;99.90;;;;;;4185495;28;20104;-62
2022/04/26 05:01:53;;;;;;;11.45;6.10;;;10.10;99.90;;;;;;4188084;28;20102;-62
2022/04/26 05:03:53;;;;;;;9.10;6.00;;;10.10;99.90;;;;;;4186386;28;20037;-62
2022/04/26 05:05:54;;;;;;;8.27;6.22;;;10.10;99.90;;;;;;4188174;28;20101;-62
2022/04/26 05:07:54;;;;;;;9.20;6.97;;;10.10;99.90;;;;;;4192948;28;20032;-63
2022/04/26 05:09:55;;;;;;;8.30;5.63;;;10.00;99.90;;;;;;4187762;28;20045;-62
2022/04/26 05:11:55;;;;;;;10.52;6.43;;;10.10;99.90;;;;;;4184394;28;20035;-62
2022/04/26 05:13:56;;;;;;;8.98;6.05;;;10.10;99.90;;;;;;4186766;28;20469;-62
2022/04/26 05:15:57;;;;;;;11.68;6.60;;;10.10;99.90;;;;;;4185912;28;20036;-62
2022/04/26 05:17:57;;;;;;;11.40;5.93;;;10.10;99.90;;;;;;4185665;28;20035;-62
2022/04/26 05:19:58;;;;;;;9.95;6.57;;;10.10;99.90;;;;;;4184257;28;20021;-62
2022/04/26 05:21:58;;;;;;;10.68;6.43;;;10.10;99.90;;;;;;4184206;28;20044;-62
2022/04/26 05:26:19;;;;;;;10.23;7.00;;;10.10;99.90;;;;;;4187791;28;20027;-62
2022/04/26 05:28:19;;;;;;;14.38;7.20;;;10.10;99.90;;;;;;4188700;28;20108;-62
2022/04/26 05:30:20;;;;;;;11.23;6.97;;;10.10;99.90;;;;;;4187235;28;20160;-62
2022/04/26 05:32:24;;;;;;;10.60;6.95;;;10.10;99.90;;;;;;4185943;28;20028;-62
2022/04/26 05:34:25;;;;;;;11.75;7.25;;;10.10;99.90;;;;;;4189789;28;20056;-62
2022/04/26 05:36:26;;;;;;;11.45;7.72;;;10.10;99.90;;;;;;4189226;28;20439;-63
2022/04/26 05:38:26;;;;;;;10.80;6.80;;;10.10;99.90;;;;;;4186517;28;20044;-62
2022/04/26 05:40:27;;;;;;;11.18;7.47;;;10.10;99.90;;;;;;4187380;28;20099;-62
2022/04/26 05:42:35;;;;;;;20.38;8.68;;;10.10;99.90;;;;;;4186501;28;20491;-62
2022/04/26 05:44:38;;;;;;;11.20;7.22;;;10.10;99.90;;;;;;4189471;28;20455;-63
2022/04/26 05:46:39;;;;;;;13.85;8.27;;;10.20;99.90;;;;;;4186513;28;20021;-62
2022/04/26 05:48:40;;;;;;;13.40;7.05;;;10.10;99.90;;;;;;4186676;28;20169;-62
2022/04/26 05:50:41;;;;;;;11.32;7.30;;;10.20;99.90;;;;;;4181354;28;20526;-62
2022/04/26 05:52:42;;;;;;;12.65;7.93;;;10.20;99.90;;;;;;4186573;28;20029;-62
2022/04/26 05:54:42;;;;;;;12.63;7.15;;;10.20;99.90;;;;;;4189774;28;20033;-62
2022/04/26 05:56:43;;;;;;;10.25;7.13;;;10.20;99.90;;;;;;4190399;28;20028;-62
2022/04/26 05:58:44;;;;;;;10.98;7.07;;;10.20;99.90;;;;;;4189545;28;20082;-62
2022/04/26 06:00:44;;;;;;;11.23;7.45;;;10.20;99.90;;;;;;4191396;28;20483;-62
2022/04/26 06:02:45;;;;;;;11.95;7.63;;;10.30;99.90;;;;;;4191493;28;20093;-62
2022/04/26 06:04:45;;;;;;;13.63;8.65;;;10.20;99.90;;;;;;4191349;28;20043;-62
2022/04/26 06:06:46;;;;;;;9.68;7.35;;;10.30;99.90;;;;;;4190337;28;20047;-62
2022/04/26 06:08:47;;;;;;;12.02;6.90;;;10.20;99.90;;;;;;4191454;28;20059;-62
2022/04/26 06:10:47;;;;;;;11.15;7.50;;;10.30;99.90;;;;;;4191013;28;20086;-62
2022/04/26 06:12:48;;;;;;;9.18;6.72;;;10.30;99.90;;;;;;4191815;28;20480;-62
2022/04/26 06:14:49;;;;;;;8.30;6.30;;;10.30;99.90;;;;;;4192943;28;20131;-62
2022/04/26 06:16:50;;;;;;;12.65;8.07;;;10.30;99.90;;;;;;4190740;28;20053;-62
2022/04/26 06:18:51;;;;;;;10.93;7.55;;;10.30;99.90;;;;;;4189759;28;20028;-62
2022/04/26 06:20:51;;;;;;;13.45;7.72;;;10.30;99.90;;;;;;4191433;28;20487;-66
2022/04/26 06:22:54;;;;;;;12.23;7.57;;;10.30;99.90;;;;;;4190221;28;20036;-64
2022/04/26 06:24:54;;;;;;;11.15;7.35;;;10.30;99.90;;;;;;4190068;28;20418;-63
2022/04/26 06:26:55;;;;;;;12.07;7.18;;;10.30;99.90;;;;;;4189596;28;20043;-63
2022/04/26 06:28:56;;;;;;;11.60;7.38;;;10.30;99.90;;;;;;4190377;28;20592;-62
2022/04/26 06:30:57;;;;;;;11.48;7.57;;;10.30;99.90;;;;;;4188680;28;20047;-62
2022/04/26 06:32:57;;;;;;;10.48;7.43;;;10.30;99.90;;;;;;4189377;28;20048;-63
2022/04/26 06:34:58;;;;;;;12.88;8.15;;;10.30;99.90;;;;;;4190165;28;20036;-63
2022/04/26 06:36:59;;;;;;;11.15;7.40;;;10.40;99.90;;;;;;4188055;28;20060;-63
2022/04/26 06:38:59;;;;;;;11.18;6.97;;;10.40;99.90;;;;;;4190209;28;20128;-63
2022/04/26 06:41:00;;;;;;;14.50;8.00;;;10.50;99.90;;;;;;4189278;28;20040;-63
2022/04/26 06:43:00;;;;;;;12.98;8.70;;;10.50;99.90;;;;;;4189959;28;20391;-63
2022/04/26 06:45:01;;;;;;;15.27;8.20;;;10.50;99.90;;;;;;4189185;28;20049;-63
2022/04/26 06:47:02;;;;;;;13.60;8.40;;;10.50;99.90;;;;;;4187265;28;20389;-63
2022/04/26 06:49:05;;;;;;;13.68;8.75;;;10.50;99.90;;;;;;4190364;28;20123;-63
2022/04/26 06:51:06;;;;;;;17.17;10.38;;;10.60;99.90;;;;;;4188781;28;20526;-63
2022/04/26 06:53:07;;;;;;;17.40;10.85;;;10.60;99.90;;;;;;4183820;28;20052;-63
2022/04/26 06:55:08;;;;;;;18.02;10.63;;;10.60;99.90;;;;;;4189171;28;20072;-66
2022/04/26 06:57:08;;;;;;;14.27;9.82;;;10.50;99.90;;;;;;4188691;28;20052;-63
2022/04/26 06:59:09;;;;;;;16.65;9.65;;;10.60;99.90;;;;;;4189670;28;20043;-63
2022/04/26 07:01:09;;;;;;;15.73;10.40;;;10.60;99.90;;;;;;4183614;28;20044;-63
2022/04/26 07:03:10;;;;;;;16.40;11.20;;;10.60;99.90;;;;;;4189491;28;20036;-63
2022/04/26 07:05:12;;;;;;;11.93;8.98;;;10.60;99.90;;;;;;4187919;28;20044;-64
2022/04/26 07:07:12;;;;;;;14.73;9.03;;;10.70;99.90;;;;;;4189383;28;20036;-63
2022/04/26 07:09:13;;;;;;;13.85;9.55;;;10.70;99.90;;;;;;4189388;28;20259;-64
2022/04/26 07:11:16;;;;;;;13.73;9.90;;;10.80;99.90;;;;;;4189939;28;20086;-63
2022/04/26 07:13:21;;;;;;;13.35;9.57;;;10.80;99.90;;;;;;4191702;28;20024;-63
2022/04/26 07:15:22;;;;;;;16.83;10.90;;;10.80;99.90;;;;;;4187254;28;20039;-66
2022/04/26 07:17:22;;;;;;;17.42;11.60;;;10.80;99.90;;;;;;4188344;28;20396;-64
2022/04/26 07:19:23;;;;;;;19.35;12.85;;;10.80;99.90;;;;;;4191021;28;20032;-63
2022/04/26 07:21:24;;;;;;;17.17;12.00;;;10.70;99.90;;;;;;4188994;28;20415;-64
2022/04/26 07:23:24;;;;;;;16.85;12.18;;;10.70;99.90;;;;;;4189822;28;20116;-63
2022/04/26 07:25:25;;;;;;;17.55;11.75;;;10.80;99.90;;;;;;4191190;28;20569;-63
2022/04/26 07:27:25;;;;;;;19.63;13.43;;;10.80;99.90;;;;;;4187189;28;20087;-63
2022/04/26 07:29:26;;;;;;;22.77;15.57;;;10.80;99.90;;;;;;4191371;28;20028;-63
2022/04/26 07:31:29;;;;;;;23.73;16.58;;;10.80;99.90;;;;;;4190622;28;20044;-63
2022/04/26 07:35:49;;;;;;;25.27;17.52;;;10.80;99.90;;;;;;4189764;28;20037;-63
2022/04/26 07:37:52;;;;;;;28.02;17.95;;;10.80;99.90;;;;;;4190481;28;20049;-63
2022/04/26 07:39:52;;;;;;;26.95;18.35;;;10.90;99.90;;;;;;4190454;28;20064;-63
2022/04/26 07:41:54;;;;;;;32.80;19.50;;;10.90;99.90;;;;;;4188674;28;20415;-65
2022/04/26 07:43:55;;;;;;;31.20;21.58;;;10.90;99.90;;;;;;4189390;28;20033;-63
2022/04/26 07:45:56;;;;;;;33.53;23.77;;;10.90;99.90;;;;;;4190453;28;20032;-63
2022/04/26 07:47:58;;;;;;;43.08;25.25;;;10.90;99.90;;;;;;4190887;28;20039;-63
2022/04/26 07:50:00;;;;;;;32.83;23.50;;;10.90;99.90;;;;;;4190441;28;20040;-63
2022/04/26 07:52:00;;;;;;;29.80;21.93;;;10.90;99.90;;;;;;4191146;28;20372;-63
2022/04/26 07:54:01;;;;;;;35.30;24.55;;;10.90;99.90;;;;;;4189382;28;20040;-63
2022/04/26 07:56:02;;;;;;;40.25;26.73;;;11.00;99.90;;;;;;4190446;28;20032;-63
2022/04/26 07:58:05;;;;;;;36.70;24.88;;;10.90;99.90;;;;;;4191028;28;20037;-63
2022/04/26 08:00:06;;;;;;;33.63;23.50;;;10.90;99.90;;;;;;4190029;28;20049;-63
2022/04/26 08:02:08;;;;;;;34.30;23.48;;;10.90;99.90;;;;;;4189668;28;20044;-63
2022/04/26 08:04:08;;;;;;;32.70;23.33;;;11.00;99.90;;;;;;4191233;28;20040;-63
2022/04/26 08:06:12;;;;;;;35.35;23.55;;;11.00;99.90;;;;;;4184310;28;20084;-63
2022/04/26 08:08:12;;;;;;;32.03;23.17;;;11.00;99.90;;;;;;4199288;28;20115;-64
2022/04/26 08:10:13;;;;;;;32.80;21.63;;;11.10;99.90;;;;;;4191546;28;20047;-63
2022/04/26 08:12:13;;;;;;;33.85;22.08;;;11.10;99.90;;;;;;4192717;28;20036;-63
2022/04/26 08:14:14;;;;;;;32.78;20.67;;;11.10;99.90;;;;;;4189365;28;20384;-63
2022/04/26 08:16:15;;;;;;;23.40;17.45;;;11.10;99.90;;;;;;4186816;28;20509;-63
2022/04/26 08:18:16;;;;;;;22.92;16.80;;;11.10;99.90;;;;;;4186466;28;20029;-63
2022/04/26 08:20:19;;;;;;;28.40;17.92;;;11.20;99.90;;;;;;4190537;28;20056;-63
2022/04/26 08:22:20;;;;;;;29.92;18.45;;;11.30;99.90;;;;;;4190401;28;20496;-63
2022/04/26 08:29:16;;;;;;;20.85;14.02;;;11.30;99.90;;;;;;4172032;28;20044;-63
2022/04/26 08:31:17;;;;;;;20.13;14.98;;;11.40;99.90;;;;;;4173907;28;20028;-63
2022/04/26 08:33:17;;;;;;;19.42;13.63;;;11.50;99.90;;;;;;4187605;28;20052;-63
2022/04/26 08:35:23;;;;;;;20.55;14.27;;;11.60;99.90;;;;;;4189037;28;20025;-64
2022/04/26 08:37:24;;;;;;;26.40;14.18;;;11.60;99.90;;;;;;4176992;28;20033;-64
2022/04/26 08:39:27;;;;;;;18.52;13.55;;;11.70;99.90;;;;;;4197383;28;22522;-64
2022/04/26 08:41:29;;;;;;;18.33;12.88;;;11.80;99.90;;;;;;4184397;28;20029;-63
2022/04/26 08:43:37;;;;;;;16.08;11.98;;;11.80;99.90;;;;;;4200696;28;20448;-64
2022/04/26 08:45:38;;;;;;;19.52;13.70;;;12.00;99.90;;;;;;4186087;28;20025;-64
2022/04/26 08:52:20;;;;;;;19.80;12.70;;;12.30;99.90;;;;;;4189677;28;20170;-63
2022/04/26 08:54:21;;;;;;;18.77;10.65;;;12.40;99.90;;;;;;4191223;28;20129;-63
2022/04/26 08:56:21;;;;;;;15.27;10.32;;;12.50;99.90;;;;;;4188886;28;20036;-63
2022/04/26 08:58:25;;;;;;;16.17;10.98;;;12.60;99.90;;;;;;4190274;28;20054;-63
2022/04/26 09:00:26;;;;;;;16.58;10.82;;;12.70;99.90;;;;;;4189388;28;20040;-63
2022/04/26 09:02:26;;;;;;;12.43;9.80;;;12.80;99.90;;;;;;4188874;28;20051;-62
2022/04/26 09:04:27;;;;;;;21.17;11.45;;;12.90;99.90;;;;;;4189445;28;20036;-64
2022/04/26 09:06:33;;;;;;;15.40;10.95;;;13.00;99.90;;;;;;4179598;28;20127;-63
2022/04/26 09:08:38;;;;;;;14.32;10.30;;;13.00;99.90;;;;;;4189328;28;20086;-63
2022/04/26 09:10:46;;;;;;;18.35;11.00;;;13.00;99.90;;;;;;4189424;28;20518;-63
2022/04/26 09:13:06;;;;;;;14.57;9.82;;;13.00;99.90;;;;;;4190308;28;20044;-63
2022/04/26 09:15:16;;;;;;;14.63;10.93;;;13.00;99.90;;;;;;4185008;28;20400;-64
2022/04/26 09:17:16;;;;;;;15.88;10.25;;;13.00;99.90;;;;;;4182095;28;20461;-63
2022/04/26 09:19:17;;;;;;;17.30;11.65;;;13.00;99.90;;;;;;4195873;28;20037;-64
2022/04/26 09:21:18;;;;;;;15.90;10.45;;;13.00;99.90;;;;;;4182845;28;20055;-64
2022/04/26 09:23:24;;;;;;;15.45;10.48;;;13.10;99.90;;;;;;4189954;28;20048;-64
2022/04/26 09:25:25;;;;;;;13.50;11.05;;;13.20;99.90;;;;;;4189321;28;20063;-63
2022/04/26 09:27:27;;;;;;;17.25;11.43;;;13.30;99.90;;;;;;4190307;28;20039;-62
2022/04/26 09:29:28;;;;;;;21.30;11.07;;;13.40;99.90;;;;;;4190235;28;20109;-62
2022/04/26 09:31:31;;;;;;;12.85;10.10;;;13.50;99.90;;;;;;4176973;28;20571;-62
2022/04/26 09:33:33;;;;;;;14.45;10.15;;;13.60;99.90;;;;;;4188865;28;20459;-63
2022/04/26 09:35:35;;;;;;;14.50;9.50;;;13.80;99.90;;;;;;4187943;28;20041;-63
2022/04/26 09:37:43;;;;;;;17.02;10.00;;;13.90;99.90;;;;;;4189102;28;20274;-63
2022/04/26 09:40:09;;;;;;;15.27;10.38;;;14.00;99.90;;;;;;4202259;28;20419;-63
2022/04/26 09:42:10;;;;;;;12.82;9.05;;;14.20;99.90;;;;;;4189506;28;20061;-63
2022/04/26 09:44:10;;;;;;;14.30;9.82;;;14.30;99.90;;;;;;4188614;28;20063;-63
2022/04/26 09:46:11;;;;;;;12.88;8.75;;;14.40;99.90;;;;;;4187833;28;20465;-63
2022/04/26 09:48:25;;;;;;;13.68;9.75;;;14.40;99.90;;;;;;4189683;28;20384;-63
2022/04/26 09:50:27;;;;;;;16.25;9.90;;;14.40;99.90;;;;;;4188669;28;20037;-64
2022/04/26 09:52:28;;;;;;;12.45;8.77;;;14.40;99.90;;;;;;4188983;28;20040;-63
2022/04/26 09:54:32;;;;;;;15.02;9.73;;;14.40;99.90;;;;;;4189340;28;20101;-63
2022/04/26 09:56:34;;;;;;;19.05;10.68;;;14.40;99.90;;;;;;4187818;28;20029;-63
2022/04/26 09:58:38;;;;;;;16.07;11.90;;;14.30;99.90;;;;;;4189181;28;20037;-63
2022/04/26 10:00:42;;;;;;;18.42;11.05;;;14.40;99.90;;;;;;4188691;28;20198;-63
2022/04/26 10:02:53;;;;;;;14.77;10.43;;;14.50;99.90;;;;;;4187244;28;20032;-63
2022/04/26 10:04:58;;;;;;;14.75;9.98;;;14.50;99.90;;;;;;4186269;28;20029;-63
2022/04/26 10:07:09;;;;;;;13.15;9.23;;;14.50;99.90;;;;;;4188142;28;20040;-63
2022/04/26 10:09:10;;;;;;;15.25;9.75;;;14.50;99.90;;;;;;4180291;28;20052;-63
2022/04/26 10:11:11;;;;;;;11.48;9.18;;;14.60;99.90;;;;;;4184327;28;20049;-63
2022/04/26 10:13:31;;;;;;;11.52;8.52;;;14.60;99.90;;;;;;4188989;28;20047;-63
2022/04/26 10:15:33;;;;;;;14.15;9.13;;;14.70;99.90;;;;;;4187970;28;20495;-63
2022/04/26 10:17:34;;;;;;;11.65;8.68;;;14.80;99.90;;;;;;4189837;28;20151;-63
2022/04/26 10:19:37;;;;;;;14.05;8.23;;;14.80;99.90;;;;;;4189388;28;20052;-63
2022/04/26 10:21:38;;;;;;;10.80;7.45;;;14.90;99.90;;;;;;4189143;28;20060;-63
2022/04/26 10:23:51;;;;;;;11.48;7.78;;;15.00;99.90;;;;;;4190468;28;20040;-64
2022/04/26 10:26:22;;;;;;;14.70;9.88;;;15.10;99.90;;;;;;4188511;28;20035;-63
2022/04/26 10:28:23;;;;;;;11.90;8.35;;;14.90;99.90;;;;;;4188218;28;20025;-63
2022/04/26 10:30:47;;;;;;;11.63;7.65;;;14.90;99.90;;;;;;4188273;28;20051;-63
2022/04/26 10:32:48;;;;;;;12.13;8.20;;;14.90;99.90;;;;;;4189173;28;20481;-63
2022/04/26 10:34:49;;;;;;;15.10;8.40;;;14.90;99.90;;;;;;4189750;28;20040;-63
2022/04/26 10:37:13;;;;;;;12.20;8.18;;;14.90;99.90;;;;;;4188521;28;20111;-63
2022/04/26 10:39:13;;;;;;;11.63;7.88;;;14.90;99.90;;;;;;4183530;28;20029;-63
2022/04/26 10:41:15;;;;;;;11.73;7.28;;;14.90;99.90;;;;;;4190634;28;20443;-63
2022/04/26 10:43:16;;;;;;;14.20;8.80;;;14.90;99.90;;;;;;4192303;28;20070;-63
2022/04/26 10:45:16;;;;;;;11.77;7.80;;;14.90;99.90;;;;;;4189764;28;20059;-63
2022/04/26 10:47:25;;;;;;;12.32;7.75;;;14.90;99.90;;;;;;4191006;28;20507;-63
2022/04/26 10:49:40;;;;;;;13.93;8.23;;;14.90;99.90;;;;;;4192161;28;20037;-63
2022/04/26 10:51:41;;;;;;;15.50;9.05;;;14.90;99.90;;;;;;4192256;28;20510;-64
2022/04/26 10:53:48;;;;;;;14.73;8.23;;;14.80;99.90;;;;;;4193609;28;20025;-63
2022/04/26 10:55:50;;;;;;;14.45;9.00;;;14.70;99.90;;;;;;4190463;28;20040;-63
2022/04/26 10:57:51;;;;;;;11.13;7.40;;;14.60;99.90;;;;;;4192114;28;20036;-63
2022/04/26 10:59:59;;;;;;;16.30;8.73;;;14.70;99.90;;;;;;4191667;28;20032;-63
2022/04/26 11:02:00;;;;;;;10.98;7.38;;;14.80;99.90;;;;;;4189910;28;20052;-63
2022/04/26 11:04:01;;;;;;;15.77;7.82;;;14.80;99.90;;;;;;4192172;28;20039;-63
2022/04/26 11:06:05;;;;;;;15.90;8.15;;;14.90;99.90;;;;;;4190265;28;20063;-63
2022/04/26 11:08:06;;;;;;;11.32;7.85;;;15.00;99.90;;;;;;4191501;28;20503;-63
2022/04/26 11:10:08;;;;;;;11.10;7.18;;;15.10;99.90;;;;;;4190072;28;20037;-65
2022/04/26 11:12:08;;;;;;;12.80;7.33;;;15.20;99.90;;;;;;4190973;28;20050;-64
2022/04/26 11:14:09;;;;;;;11.50;7.75;;;15.20;99.90;;;;;;4190563;28;20576;-64
2022/04/26 11:16:13;;;;;;;16.10;8.55;;;15.10;99.90;;;;;;4192515;28;20215;-64
2022/04/26 11:18:20;;;;;;;13.07;7.82;;;15.10;99.90;;;;;;4190990;28;20044;-63
2022/04/26 11:20:25;;;;;;;17.98;7.32;;;15.10;99.90;;;;;;4190362;28;20411;-63
2022/04/26 11:22:28;;;;;;;14.98;8.40;;;15.10;99.90;;;;;;4192182;28;20465;-64
2022/04/26 11:29:25;;;;;;;12.98;8.27;;;15.20;99.90;;;;;;4191678;28;20041;-63
2022/04/26 11:31:25;;;;;;;11.35;7.75;;;15.30;99.90;;;;;;4189972;28;20479;-64
2022/04/26 11:33:28;;;;;;;15.38;7.95;;;15.40;99.90;;;;;;4186292;28;20048;-64
2022/04/26 11:35:29;;;;;;;11.38;7.97;;;15.40;99.90;;;;;;4191128;28;20032;-64
2022/04/26 11:37:29;;;;;;;8.82;7.03;;;15.50;99.90;;;;;;4191373;28;20041;-64
2022/04/26 11:39:39;;;;;;;11.68;7.40;;;15.50;99.90;;;;;;4191535;28;20063;-63
2022/04/26 11:41:40;;;;;;;10.68;7.47;;;15.60;99.90;;;;;;4189097;28;20044;-63
2022/04/26 11:43:41;;;;;;;12.93;7.57;;;15.50;99.90;;;;;;4190031;28;20040;-63
2022/04/26 11:45:44;;;;;;;15.52;7.68;;;15.60;99.90;;;;;;4190567;28;20124;-63
2022/04/26 11:47:48;;;;;;;9.45;6.88;;;15.60;99.90;;;;;;4190927;28;20029;-63
2022/04/26 11:49:48;;;;;;;10.57;7.05;;;15.70;99.90;;;;;;4189481;28;20056;-63
2022/04/26 11:51:59;;;;;;;12.80;8.10;;;15.70;99.90;;;;;;4190767;28;20044;-63
2022/04/26 11:54:00;;;;;;;7.30;6.13;;;15.60;99.90;;;;;;4188620;28;20044;-64
2022/04/26 11:56:03;;;;;;;12.75;7.95;;;15.60;99.90;;;;;;4189269;28;20036;-63
2022/04/26 11:58:06;;;;;;;11.30;7.18;;;15.60;99.90;;;;;;4190106;28;20572;-64
2022/04/26 12:00:07;;;;;;;10.20;6.68;;;15.50;99.90;;;;;;4190370;28;20093;-64
2022/04/26 12:02:08;;;;;;;13.63;7.72;;;15.60;99.90;;;;;;4190302;28;20048;-65
2022/04/26 12:04:08;;;;;;;12.35;7.22;;;15.70;99.90;;;;;;4191698;28;20025;-64
2022/04/26 12:06:10;;;;;;;13.55;7.20;;;15.60;99.90;;;;;;4189132;28;20134;-63
2022/04/26 12:08:12;;;;;;;15.37;8.30;;;15.60;99.90;;;;;;4192052;28;20047;-63
2022/04/26 12:10:33;;;;;;;13.07;7.13;;;15.60;99.90;;;;;;4189916;28;20275;-64
2022/04/26 12:12:54;;;;;;;11.43;6.97;;;15.50;99.90;;;;;;4191264;28;20047;-63
2022/04/26 12:14:55;;;;;;;11.23;6.63;;;15.50;99.90;;;;;;4188830;28;20028;-63
2022/04/26 12:16:56;;;;;;;12.75;7.85;;;15.50;99.90;;;;;;4187244;28;20040;-65
2022/04/26 12:19:00;;;;;;;18.23;6.85;;;15.50;99.90;;;;;;4189470;28;20021;-64
2022/04/26 12:21:02;;;;;;;10.07;6.55;;;15.50;99.90;;;;;;4188536;28;20044;-64
2022/04/26 12:23:04;;;;;;;14.00;6.80;;;15.50;99.90;;;;;;4190845;28;20044;-64
2022/04/26 12:25:14;;;;;;;14.77;8.07;;;15.50;99.90;;;;;;4190628;28;20051;-66
2022/04/26 12:27:17;;;;;;;10.00;6.45;;;15.60;99.90;;;;;;4191651;28;20086;-63
2022/04/26 12:29:18;;;;;;;13.70;7.68;;;15.60;99.90;;;;;;4190533;28;20029;-63
2022/04/26 12:31:28;;;;;;;10.23;6.63;;;15.60;99.90;;;;;;4188323;28;20032;-63
2022/04/26 12:33:34;;;;;;;14.43;7.60;;;15.70;99.90;;;;;;4189844;28;20044;-65
2022/04/26 12:35:34;;;;;;;12.05;7.38;;;15.70;99.90;;;;;;4188928;28;20044;-63
2022/04/26 12:37:35;;;;;;;10.55;6.82;;;15.70;99.90;;;;;;4191286;28;20377;-64
2022/04/26 12:39:44;;;;;;;11.40;6.70;;;15.80;99.90;;;;;;4191414;28;20554;-63
2022/04/26 12:41:49;;;;;;;12.73;8.00;;;15.80;99.90;;;;;;4189358;28;20214;-63
2022/04/26 12:44:01;;;;;;;10.93;6.63;;;15.80;99.90;;;;;;4190916;28;20025;-63
2022/04/26 12:46:06;;;;;;;9.30;6.07;;;15.90;99.90;;;;;;4189832;28;20093;-64
2022/04/26 12:50:33;;;;;;;;;;;16.10;99.90;;;;;;4190055;28;20041;-64
2022/04/26 12:52:35;;;;;;;9.73;7.03;;;16.00;99.90;;;;;;4190000;28;20691;-64
2022/04/26 12:54:37;;;;;;;11.38;6.32;;;15.90;99.90;;;;;;4189987;28;20035;-63
2022/04/26 12:56:37;;;;;;;12.02;7.28;;;16.00;99.90;;;;;;4183976;28;20116;-64
2022/04/26 12:58:43;;;;;;;10.75;6.22;;;15.90;99.90;;;;;;4183758;28;20673;-63
2022/04/26 13:00:47;;;;;;;12.27;6.60;;;15.90;99.90;;;;;;4183009;28;20035;-63
2022/04/26 13:02:49;;;;;;;10.85;6.57;;;16.00;99.90;;;;;;4176850;28;20044;-63
2022/04/26 13:04:50;;;;;;;11.88;7.28;;;16.10;99.90;;;;;;4189100;28;20036;-63
2022/04/26 13:06:51;;;;;;;12.05;7.18;;;16.10;99.90;;;;;;4188393;28;20451;-63
2022/04/26 13:08:51;;;;;;;8.73;6.10;;;16.10;99.90;;;;;;4188800;28;20040;-64
2022/04/26 13:10:54;;;;;;;15.05;6.85;;;16.00;99.90;;;;;;4188646;28;20845;-64
2022/04/26 13:12:55;;;;;;;8.70;6.22;;;15.90;99.90;;;;;;4190077;28;20028;-63
2022/04/26 13:14:56;;;;;;;10.77;6.57;;;15.90;99.90;;;;;;4189756;28;20024;-64
2022/04/26 13:16:56;;;;;;;11.85;6.78;;;15.90;99.90;;;;;;4183602;28;20053;-65
2022/04/26 13:18:57;;;;;;;9.50;5.93;;;16.00;99.90;;;;;;4186986;28;20037;-64
2022/04/26 13:20:58;;;;;;;10.23;6.30;;;16.00;99.90;;;;;;4187546;28;20396;-65
2022/04/26 13:22:59;;;;;;;10.25;6.43;;;16.10;99.90;;;;;;4187167;28;20423;-64
2022/04/26 13:25:03;;;;;;;14.35;7.30;;;16.10;99.90;;;;;;4190337;28;20045;-63
2022/04/26 13:27:06;;;;;;;11.93;6.63;;;16.10;99.90;;;;;;4187611;28;20037;-63
2022/04/26 13:29:06;;;;;;;10.52;6.40;;;16.20;99.90;;;;;;4189386;28;20398;-64
2022/04/26 13:31:07;;;;;;;10.43;6.43;;;16.20;99.90;;;;;;4187843;28;20068;-64
2022/04/26 13:33:08;;;;;;;13.20;6.82;;;16.30;99.90;;;;;;4190105;28;20476;-63
2022/04/26 13:35:09;;;;;;;10.60;6.45;;;16.20;99.90;;;;;;4188390;28;20391;-65
2022/04/26 13:37:10;;;;;;;12.18;7.50;;;16.20;99.90;;;;;;4188919;28;20098;-65
2022/04/26 13:39:11;;;;;;;10.95;6.65;;;16.10;99.90;;;;;;4190184;28;20044;-65
2022/04/26 13:41:11;;;;;;;11.45;6.18;;;16.20;99.90;;;;;;4188414;28;20047;-64
2022/04/26 13:43:12;;;;;;;8.75;5.82;;;16.20;99.90;;;;;;4189960;28;20837;-64
2022/04/26 13:45:13;;;;;;;10.00;6.13;;;16.30;99.90;;;;;;4189993;28;20086;-64
2022/04/26 13:47:13;;;;;;;10.10;6.50;;;16.20;99.90;;;;;;4187349;28;20498;-64
2022/04/26 13:49:14;;;;;;;11.38;5.82;;;16.20;99.90;;;;;;4189064;28;20047;-64
2022/04/26 13:51:15;;;;;;;8.95;6.28;;;16.30;99.90;;;;;;4188711;28;20048;-64
2022/04/26 13:53:16;;;;;;;9.18;5.95;;;16.40;99.90;;;;;;4187666;28;20067;-64
2022/04/26 13:55:17;;;;;;;11.30;6.28;;;16.40;99.90;;;;;;4187130;28;20040;-64
2022/04/26 13:57:18;;;;;;;10.88;5.60;;;16.50;99.90;;;;;;4188229;28;20060;-65
2022/04/26 13:59:19;;;;;;;10.10;6.28;;;16.50;99.90;;;;;;4187182;28;20048;-64
2022/04/26 14:01:19;;;;;;;10.40;5.72;;;16.50;99.90;;;;;;4188702;28;20032;-64
2022/04/26 14:03:20;;;;;;;11.13;6.22;;;16.60;99.90;;;;;;4187877;28;20137;-64
2022/04/26 14:05:23;;;;;;;8.68;5.97;;;16.60;99.90;;;;;;4190328;28;20037;-64
2022/04/26 14:07:23;;;;;;;9.35;5.30;;;16.60;99.90;;;;;;4187950;28;20032;-64
2022/04/26 14:09:24;;;;;;;7.57;5.13;;;16.60;99.90;;;;;;4189145;28;20488;-64
2022/04/26 14:11:25;;;;;;;7.60;5.55;;;16.60;99.90;;;;;;4187544;28;20028;-64
2022/04/26 14:13:25;;;;;;;10.25;5.45;;;16.60;99.90;;;;;;4189790;28;20070;-64
2022/04/26 14:22:30;;;;;;;8.52;5.95;;;16.50;99.90;;;;;;4191700;28;20051;-64
2022/04/26 14:24:31;;;;;;;10.88;5.53;;;16.40;99.90;;;;;;4190515;28;20119;-64
2022/04/26 14:26:32;;;;;;;11.05;4.90;;;16.40;99.90;;;;;;4190149;28;20491;-65
2022/04/26 14:28:33;;;;;;;10.88;6.00;;;16.50;99.90;;;;;;4187597;28;20102;-64
2022/04/26 14:30:33;;;;;;;7.38;4.93;;;16.50;99.90;;;;;;4193058;28;20032;-64
2022/04/26 14:32:34;;;;;;;8.02;4.90;;;16.50;99.90;;;;;;4190126;28;20068;-64